createdAt,value
2018-09-19T00:00:05.211Z,13.90
2018-09-19T00:02:35.060Z,15.10
2018-09-19T00:05:04.784Z,16.13
2018-09-19T00:07:34.237Z,15.05
2018-09-19T00:10:04.518Z,13.10
2018-09-19T00:12:34.067Z,19.20
2018-09-19T00:15:03.591Z,15.60
2018-09-19T00:17:33.084Z,15.73
2018-09-19T00:20:02.506Z,13.47
2018-09-19T00:22:32.018Z,15.47
2018-09-19T00:25:01.394Z,16.90
2018-09-19T00:27:30.643Z,15.23
2018-09-19T00:30:00.692Z,16.50
2018-09-19T00:32:31.049Z,14.40
2018-09-19T00:35:00.353Z,17.40
2018-09-19T00:37:29.717Z,18.70
2018-09-19T00:40:00.090Z,14.43
2018-09-19T00:42:29.379Z,15.15
2018-09-19T00:44:58.936Z,14.80
2018-09-19T00:47:28.315Z,17.55
2018-09-19T00:49:57.544Z,16.00
2018-09-19T00:52:26.895Z,13.80
2018-09-19T00:54:56.260Z,14.95
2018-09-19T00:57:26.105Z,22.53
2018-09-19T00:59:55.579Z,14.60
2018-09-19T01:02:24.820Z,14.60
2018-09-19T01:04:54.054Z,18.00
2018-09-19T01:07:23.224Z,21.80
2018-09-19T01:09:52.668Z,18.05
2018-09-19T01:12:22.508Z,19.50
2018-09-19T01:14:51.791Z,18.20
2018-09-19T01:17:21.069Z,17.57
2018-09-19T01:19:50.468Z,13.00
2018-09-19T01:22:19.958Z,15.10
2018-09-19T01:24:49.463Z,12.80
2018-09-19T01:27:18.784Z,12.70
2018-09-19T01:29:48.220Z,15.10
2018-09-19T01:32:17.694Z,16.93
2018-09-19T01:34:47.395Z,19.13
2018-09-19T01:37:16.816Z,17.10
2018-09-19T01:39:46.785Z,14.40
2018-09-19T01:42:16.151Z,17.10
2018-09-19T01:44:45.423Z,12.70
2018-09-19T01:47:14.673Z,17.37
2018-09-19T01:49:44.088Z,13.20
2018-09-19T01:52:14.635Z,17.97
2018-09-19T01:54:43.971Z,16.10
2018-09-19T01:57:13.441Z,12.80
2018-09-19T01:59:42.784Z,17.83
2018-09-19T02:02:12.104Z,19.10
2018-09-19T02:04:42.449Z,13.75
2018-09-19T02:07:11.697Z,15.10
2018-09-19T02:09:41.099Z,17.33
2018-09-19T02:12:10.343Z,14.80
2018-09-19T02:14:39.709Z,17.40
2018-09-19T02:17:14.819Z,16.65
2018-09-19T02:19:44.165Z,16.50
2018-09-19T02:22:13.383Z,12.85
2018-09-19T02:24:42.760Z,13.15
2018-09-19T02:27:12.745Z,15.70
2018-09-19T02:29:42.212Z,16.10
2018-09-19T02:32:11.491Z,13.93
2018-09-19T02:34:40.826Z,16.10
2018-09-19T02:37:10.034Z,16.70
2018-09-19T02:39:40.305Z,23.10
2018-09-19T02:42:10.097Z,25.60
2018-09-19T02:44:39.346Z,24.90
2018-09-19T03:21:48.709Z,28.05
2018-09-19T03:24:18.134Z,22.70
2018-09-19T03:26:47.731Z,24.30
2018-09-19T03:29:17.278Z,25.40
2018-09-19T03:36:44.010Z,19.75
2018-09-19T03:39:13.332Z,19.65
2018-09-19T03:41:43.259Z,22.95
2018-09-19T03:44:12.492Z,27.75
2018-09-19T03:46:41.799Z,22.60
2018-09-19T03:49:11.124Z,24.27
2018-09-19T03:51:41.048Z,18.47
2018-09-19T03:54:10.397Z,20.75
2018-09-19T03:56:39.793Z,17.07
2018-09-19T03:59:09.402Z,23.00
2018-09-19T04:01:38.670Z,19.53
2018-09-19T04:04:08.698Z,23.20
2018-09-19T04:06:38.250Z,19.33
2018-09-19T04:09:12.460Z,21.00
2018-09-19T04:11:42.537Z,21.90
2018-09-19T04:14:12.583Z,22.20
2018-09-19T04:16:42.366Z,17.23
2018-09-19T04:19:11.743Z,21.60
2018-09-19T04:21:45.293Z,23.60
2018-09-19T04:24:14.581Z,23.50
2018-09-19T04:26:43.843Z,22.90
2018-09-19T04:29:13.180Z,22.60
2018-09-19T04:31:42.827Z,22.53
2018-09-19T04:34:12.799Z,25.90
2018-09-19T04:36:42.264Z,27.37
2018-09-19T04:39:12.945Z,23.73
2018-09-19T04:41:43.062Z,22.50
2018-09-19T04:44:12.286Z,30.03
2018-09-19T04:46:41.731Z,21.90
2018-09-19T04:49:12.162Z,22.83
2018-09-19T04:51:41.965Z,26.13
2018-09-19T04:54:12.727Z,23.63
2018-09-19T04:56:42.179Z,22.53
2018-09-19T04:59:12.193Z,19.45
2018-09-19T05:01:42.521Z,24.05
2018-09-19T05:04:12.104Z,23.73
2018-09-19T05:06:41.637Z,21.60
2018-09-19T05:09:11.435Z,24.63
2018-09-19T05:11:40.976Z,24.87
2018-09-19T05:14:11.061Z,25.23
2018-09-19T05:16:40.595Z,31.20
2018-09-19T05:19:10.559Z,21.60
2018-09-19T05:21:40.182Z,20.30
2018-09-19T05:24:09.911Z,29.65
2018-09-19T05:26:40.334Z,24.40
2018-09-19T05:29:09.704Z,23.80
2018-09-19T05:31:39.906Z,29.85
2018-09-19T05:34:09.966Z,23.60
2018-09-19T05:36:40.654Z,28.50
2018-09-19T05:39:11.108Z,26.75
2018-09-19T05:41:40.487Z,25.13
2018-09-19T05:44:10.673Z,24.67
2018-09-19T05:46:40.268Z,29.75
2018-09-19T05:49:10.676Z,25.73
2018-09-19T06:00:42.063Z,25.40
2018-09-19T06:03:12.352Z,20.20
2018-09-19T06:05:41.861Z,23.03
2018-09-19T06:08:11.882Z,20.87
2018-09-19T06:10:42.616Z,24.90
2018-09-19T06:13:12.078Z,23.80
2018-09-19T06:15:41.818Z,21.70
2018-09-19T06:18:11.068Z,22.40
2018-09-19T06:20:40.983Z,23.57
2018-09-19T06:23:10.452Z,22.53
2018-09-19T06:25:40.176Z,22.50
2018-09-19T06:28:10.211Z,22.13
2018-09-19T06:30:39.753Z,21.33
2018-09-19T06:33:10.219Z,26.00
2018-09-19T06:35:39.639Z,17.80
2018-09-19T06:38:09.143Z,24.37
2018-09-19T06:40:39.016Z,23.15
2018-09-19T06:43:08.530Z,21.73
2018-09-19T06:45:38.113Z,20.70
2018-09-19T06:48:08.349Z,20.20
2018-09-19T06:50:38.086Z,23.10
2018-09-19T06:53:08.014Z,17.97
2018-09-19T06:55:37.529Z,19.93
2018-09-19T06:58:07.417Z,19.15
2018-09-19T07:00:37.379Z,20.23
2018-09-19T07:03:06.783Z,19.13
2018-09-19T07:05:36.251Z,19.53
2018-09-19T07:08:06.197Z,21.17
2018-09-19T07:10:35.882Z,18.47
2018-09-19T07:13:05.624Z,16.70
2018-09-19T07:15:36.355Z,24.65
2018-09-19T07:18:05.929Z,16.63
2018-09-19T07:20:35.393Z,19.85
2018-09-19T07:23:05.074Z,23.57
2018-09-19T07:25:34.647Z,25.53
2018-09-19T07:28:04.991Z,17.20
2018-09-19T07:30:35.037Z,23.53
2018-09-19T07:33:04.596Z,19.20
2018-09-19T07:35:34.091Z,16.55
2018-09-19T07:38:04.446Z,23.00
2018-09-19T07:40:34.081Z,14.70
2018-09-19T07:43:03.489Z,16.77
2018-09-19T07:45:33.081Z,17.90
2018-09-19T07:48:04.541Z,18.20
2018-09-19T07:50:33.946Z,22.40
2018-09-19T07:53:03.975Z,22.65
2018-09-19T07:55:35.331Z,17.90
2018-09-19T07:58:04.691Z,25.37
2018-09-19T08:00:34.122Z,13.03
2018-09-19T08:03:03.536Z,22.50
2018-09-19T08:05:33.238Z,17.77
2018-09-19T08:08:02.904Z,23.00
2018-09-19T08:10:33.422Z,22.43
2018-09-19T08:13:03.913Z,18.13
2018-09-19T08:15:34.144Z,19.13
2018-09-19T08:18:03.485Z,16.80
2018-09-19T08:20:32.954Z,14.20
2018-09-19T08:23:02.505Z,15.50
2018-09-19T08:25:32.391Z,15.07
2018-09-19T08:28:02.721Z,21.25
2018-09-19T08:30:32.716Z,16.30
2018-09-19T08:33:02.252Z,15.95
2018-09-19T08:35:31.875Z,13.33
2018-09-19T08:38:01.443Z,16.45
2018-09-19T08:40:31.578Z,18.63
2018-09-19T08:43:01.682Z,16.20
2018-09-19T08:45:32.246Z,16.87
2018-09-19T08:48:01.779Z,16.10
2018-09-19T08:50:31.199Z,17.60
2018-09-19T08:53:01.787Z,20.47
2018-09-19T08:55:31.599Z,15.07
2018-09-19T08:58:01.865Z,15.40
2018-09-19T09:00:32.034Z,17.43
2018-09-19T09:03:01.969Z,13.30
2018-09-19T09:05:31.684Z,12.10
2018-09-19T09:08:01.300Z,14.03
2018-09-19T09:10:32.124Z,14.30
2018-09-19T09:13:02.538Z,13.63
2018-09-19T09:15:32.182Z,17.27
2018-09-19T09:18:01.533Z,13.00
2018-09-19T09:20:31.234Z,13.43
2018-09-19T09:23:01.760Z,13.00
2018-09-19T09:25:31.490Z,11.33
2018-09-19T09:28:01.006Z,17.27
2018-09-19T09:30:31.293Z,15.37
2018-09-19T09:33:00.655Z,13.73
2018-09-19T09:35:30.909Z,12.80
2018-09-19T09:38:00.213Z,13.80
2018-09-19T09:40:30.416Z,10.70
2018-09-19T09:43:00.617Z,12.20
2018-09-19T09:45:30.137Z,12.27
2018-09-19T09:48:00.865Z,13.60
2018-09-19T09:50:30.689Z,14.20
2018-09-19T09:53:00.083Z,11.27
2018-09-19T09:55:30.127Z,10.83
2018-09-19T09:57:59.483Z,15.20
2018-09-19T10:00:34.346Z,14.50
2018-09-19T10:03:04.140Z,8.73
2018-09-19T10:05:33.734Z,10.83
2018-09-19T10:08:03.205Z,10.20
2018-09-19T10:10:32.703Z,9.10
2018-09-19T10:13:02.162Z,11.10
2018-09-19T10:15:31.659Z,10.53
2018-09-19T10:18:01.256Z,11.27
2018-09-19T10:20:30.762Z,12.47
2018-09-19T10:23:00.902Z,9.33
2018-09-19T10:25:30.779Z,8.83
2018-09-19T10:28:00.278Z,10.80
2018-09-19T10:30:29.949Z,9.87
2018-09-19T10:32:59.440Z,9.83
2018-09-19T10:35:28.904Z,10.37
2018-09-19T10:37:58.446Z,7.40
2018-09-19T10:40:27.960Z,11.60
2018-09-19T10:42:58.125Z,8.90
2018-09-19T10:45:27.615Z,10.20
2018-09-19T10:47:56.995Z,11.10
2018-09-19T10:50:26.514Z,6.83
2018-09-19T10:52:56.247Z,10.53
2018-09-19T10:55:25.981Z,9.07
2018-09-19T10:57:55.466Z,9.60
2018-09-19T11:00:25.283Z,9.17
2018-09-19T11:02:55.161Z,8.97
2018-09-19T11:05:24.821Z,11.30
2018-09-19T11:07:55.062Z,8.70
2018-09-19T11:10:25.467Z,7.67
2018-09-19T11:12:54.997Z,10.93
2018-09-19T11:15:24.746Z,11.30
2018-09-19T11:17:54.140Z,9.90
2018-09-19T11:20:23.956Z,10.23
2018-09-19T11:22:53.333Z,11.77
2018-09-19T11:25:22.674Z,11.33
2018-09-19T11:27:52.175Z,11.80
2018-09-19T11:30:22.296Z,12.23
2018-09-19T11:32:51.967Z,13.80
2018-09-19T11:35:21.840Z,10.03
2018-09-19T11:37:51.583Z,13.93
2018-09-19T11:40:21.104Z,9.57
2018-09-19T11:42:50.948Z,8.93
2018-09-19T11:45:20.725Z,10.67
2018-09-19T11:48:03.582Z,8.33
2018-09-19T11:50:33.104Z,14.87
2018-09-19T11:53:02.561Z,11.00
2018-09-19T11:55:31.852Z,13.67
2018-09-19T11:58:02.450Z,13.07
2018-09-19T12:00:32.005Z,11.07
2018-09-19T12:03:01.555Z,11.07
2018-09-19T12:05:31.102Z,10.17
2018-09-19T12:08:00.673Z,17.77
2018-09-19T12:10:31.032Z,9.33
2018-09-19T12:13:01.483Z,10.00
2018-09-19T12:15:31.163Z,15.57
2018-09-19T12:18:00.639Z,9.97
2018-09-19T12:20:30.743Z,10.80
2018-09-19T12:23:00.204Z,9.23
2018-09-19T12:25:29.673Z,7.73
2018-09-19T12:27:59.280Z,10.80
2018-09-19T12:30:28.916Z,9.10
2018-09-19T12:32:59.133Z,9.57
2018-09-19T12:35:28.970Z,7.35
2018-09-19T12:37:59.005Z,6.90
2018-09-19T12:40:28.762Z,9.60
2018-09-19T12:42:58.726Z,13.83
2018-09-19T12:45:28.180Z,13.43
2018-09-19T12:47:57.987Z,14.70
2018-09-19T12:50:27.991Z,9.90
2018-09-19T12:52:57.446Z,9.40
2018-09-19T12:55:27.144Z,11.20
2018-09-19T12:57:57.052Z,10.63
2018-09-19T13:00:26.643Z,9.70
2018-09-19T13:02:56.098Z,9.87
2018-09-19T13:05:25.997Z,13.10
2018-09-19T13:07:55.287Z,7.90
2018-09-19T13:10:26.415Z,6.23
2018-09-19T13:12:56.418Z,7.37
2018-09-19T13:15:25.976Z,8.37
2018-09-19T13:17:55.405Z,9.93
2018-09-19T13:20:26.561Z,8.85
2018-09-19T13:22:56.216Z,8.27
2018-09-19T13:25:26.097Z,7.70
2018-09-19T13:27:55.725Z,9.43
2018-09-19T13:30:25.294Z,11.70
2018-09-19T13:32:54.845Z,11.73
2018-09-19T13:35:24.387Z,9.90
2018-09-19T13:37:53.981Z,8.57
2018-09-19T13:40:23.593Z,9.10
2018-09-19T13:42:53.339Z,8.80
2018-09-19T13:45:22.658Z,7.90
2018-09-19T13:47:52.187Z,10.23
2018-09-19T13:50:29.837Z,10.70
2018-09-19T13:52:59.329Z,8.67
2018-09-19T13:55:29.444Z,8.43
2018-09-19T13:57:58.949Z,11.93
2018-09-19T14:00:28.550Z,9.43
2018-09-19T14:02:58.680Z,12.57
2018-09-19T14:05:28.529Z,9.77
2018-09-19T14:07:59.789Z,11.57
2018-09-19T14:10:29.125Z,10.53
2018-09-19T14:12:58.682Z,10.60
2018-09-19T14:15:28.855Z,8.67
2018-09-19T14:17:58.406Z,14.57
2018-09-19T14:20:28.572Z,12.87
2018-09-19T14:22:58.595Z,11.70
2018-09-19T14:25:28.617Z,11.53
2018-09-19T14:27:59.068Z,12.40
2018-09-19T14:30:29.028Z,8.80
2018-09-19T14:33:00.607Z,8.67
2018-09-19T14:35:31.363Z,8.97
2018-09-19T14:38:00.708Z,10.50
2018-09-19T14:40:30.437Z,11.05
2018-09-19T14:43:00.111Z,12.20
2018-09-19T14:45:29.617Z,11.35
2018-09-19T14:47:59.436Z,8.53
2018-09-19T14:50:29.683Z,11.03
2018-09-19T14:52:59.029Z,8.90
2018-09-19T14:55:28.575Z,10.03
2018-09-19T14:57:58.399Z,9.23
2018-09-19T15:00:28.820Z,8.37
2018-09-19T15:02:58.234Z,9.30
2018-09-19T15:05:27.722Z,7.97
2018-09-19T15:07:57.067Z,9.23
2018-09-19T15:10:26.696Z,14.40
2018-09-19T15:12:56.687Z,9.33
2018-09-19T15:15:26.369Z,8.37
2018-09-19T15:17:56.603Z,7.27
2018-09-19T15:20:26.190Z,8.00
2018-09-19T15:22:56.833Z,8.20
2018-09-19T15:25:26.306Z,9.50
2018-09-19T15:27:55.840Z,5.30
2018-09-19T15:30:25.547Z,10.37
2018-09-19T15:32:54.945Z,11.10
2018-09-19T15:35:24.618Z,7.17
2018-09-19T15:37:54.377Z,7.23
2018-09-19T15:40:24.473Z,6.60
2018-09-19T15:42:54.095Z,8.60
2018-09-19T15:45:24.153Z,8.60
2018-09-19T15:47:54.507Z,8.97
2018-09-19T15:50:25.061Z,10.43
2018-09-19T15:52:55.034Z,8.30
2018-09-19T15:55:25.959Z,12.90
2018-09-19T15:57:55.586Z,12.53
2018-09-19T16:00:25.603Z,8.83
2018-09-19T16:02:55.188Z,12.07
2018-09-19T16:05:24.711Z,8.90
2018-09-19T16:07:55.013Z,8.27
2018-09-19T16:10:24.514Z,9.47
2018-09-19T16:12:54.785Z,9.23
2018-09-19T16:15:25.062Z,8.43
2018-09-19T16:17:54.726Z,9.07
2018-09-19T16:20:24.361Z,11.37
2018-09-19T16:22:53.940Z,12.87
2018-09-19T16:25:23.468Z,11.20
2018-09-19T16:27:53.296Z,10.50
2018-09-19T16:30:22.902Z,7.23
2018-09-19T16:32:52.709Z,9.80
2018-09-19T16:35:22.419Z,10.83
2018-09-19T16:37:52.005Z,9.60
2018-09-19T16:40:21.802Z,10.40
2018-09-19T16:42:51.424Z,7.77
2018-09-19T16:45:20.901Z,14.23
2018-09-19T16:47:50.929Z,10.97
2018-09-19T16:50:20.669Z,9.70
2018-09-19T16:52:50.250Z,10.97
2018-09-19T16:55:19.893Z,9.37
2018-09-19T16:57:49.674Z,9.57
2018-09-19T17:00:19.454Z,8.67
2018-09-19T17:02:49.592Z,9.90
2018-09-19T17:05:19.335Z,11.20
2018-09-19T17:07:48.846Z,8.40
2018-09-19T17:10:18.764Z,11.10
2018-09-19T17:12:48.267Z,6.97
2018-09-19T17:15:18.450Z,10.20
2018-09-19T17:17:47.967Z,8.57
2018-09-19T17:20:17.778Z,9.10
2018-09-19T17:22:47.469Z,7.70
2018-09-19T17:25:18.306Z,12.40
2018-09-19T17:27:48.103Z,12.90
2018-09-19T17:30:18.428Z,10.30
2018-09-19T17:32:48.333Z,9.40
2018-09-19T17:35:17.736Z,9.77
2018-09-19T17:37:47.370Z,10.73
2018-09-19T17:40:17.407Z,7.43
2018-09-19T17:42:47.686Z,9.93
2018-09-19T17:45:17.638Z,8.00
2018-09-19T17:47:47.358Z,8.65
2018-09-19T17:50:16.696Z,9.83
2018-09-19T17:52:46.355Z,9.83
2018-09-19T17:55:16.522Z,10.53
2018-09-19T17:57:46.042Z,7.40
2018-09-19T18:00:15.725Z,9.17
2018-09-19T18:02:45.276Z,7.93
2018-09-19T18:05:15.198Z,10.70
2018-09-19T18:10:46.477Z,9.83
2018-09-19T18:13:15.988Z,11.97
2018-09-19T18:15:45.569Z,6.90
2018-09-19T18:18:14.951Z,8.27
2018-09-19T18:20:44.482Z,10.97
2018-09-19T18:23:14.035Z,10.37
2018-09-19T18:25:44.041Z,10.00
2018-09-19T18:28:13.642Z,9.17
2018-09-19T18:30:43.742Z,13.53
2018-09-19T18:33:16.963Z,8.23
2018-09-19T18:35:47.201Z,8.97
2018-09-19T18:38:16.668Z,8.40
2018-09-19T18:40:46.259Z,13.00
2018-09-19T18:43:15.584Z,8.77
2018-09-19T18:45:44.957Z,11.70
2018-09-19T18:48:14.559Z,9.37
2018-09-19T18:50:44.112Z,9.47
2018-09-19T18:53:13.443Z,13.93
2018-09-19T18:55:42.821Z,10.97
2018-09-19T18:58:12.126Z,10.30
2018-09-19T19:00:41.901Z,12.70
2018-09-19T19:03:11.601Z,11.80
2018-09-19T19:05:41.072Z,10.77
2018-09-19T19:08:10.466Z,7.80
2018-09-19T19:10:40.517Z,8.27
2018-09-19T19:13:10.574Z,9.40
2018-09-19T19:15:39.965Z,9.47
2018-09-19T19:18:09.641Z,9.30
2018-09-19T19:20:39.093Z,8.00
2018-09-19T19:23:09.504Z,9.73
2018-09-19T19:25:39.568Z,11.33
2018-09-19T19:28:08.984Z,10.17
2018-09-19T19:30:38.710Z,6.77
2018-09-19T19:33:08.688Z,11.57
2018-09-19T19:35:38.076Z,9.93
2018-09-19T19:38:07.506Z,8.20
2018-09-19T19:40:37.145Z,8.90
2018-09-19T19:43:07.044Z,9.93
2018-09-19T19:45:36.810Z,9.50
2018-09-19T19:48:06.459Z,11.93
2018-09-19T19:50:35.769Z,7.47
2018-09-19T19:53:05.745Z,14.53
2018-09-19T19:55:36.056Z,7.73
2018-09-19T19:58:05.806Z,8.47
2018-09-19T20:00:36.638Z,10.15
2018-09-19T20:03:06.365Z,10.43
2018-09-19T20:05:36.308Z,8.73
2018-09-19T20:08:06.431Z,9.15
2018-09-19T20:10:36.482Z,9.70
2018-09-19T20:13:06.807Z,9.63
2018-09-19T20:15:36.951Z,8.40
2018-09-19T20:18:06.350Z,10.47
2018-09-19T20:20:35.652Z,12.53
2018-09-19T20:23:05.061Z,7.10
2018-09-19T20:25:34.512Z,8.27
2018-09-19T20:28:04.420Z,9.13
2018-09-19T20:30:34.143Z,8.10
2018-09-19T20:33:03.866Z,9.50
2018-09-19T20:35:33.392Z,10.37
2018-09-19T20:38:03.027Z,10.87
2018-09-19T20:40:32.593Z,9.23
2018-09-19T20:43:02.042Z,8.60
2018-09-19T20:45:31.584Z,6.90
2018-09-19T20:48:00.930Z,8.50
2018-09-19T20:50:30.286Z,8.00
2018-09-19T20:53:00.189Z,14.77
2018-09-19T20:55:29.682Z,10.93
2018-09-19T20:57:59.235Z,6.93
2018-09-19T21:00:29.411Z,8.20
2018-09-19T21:02:59.348Z,10.73
2018-09-19T21:05:28.689Z,10.83
2018-09-19T21:07:58.359Z,9.60
2018-09-19T21:10:28.500Z,11.23
2018-09-19T21:12:58.099Z,8.90
2018-09-19T21:15:28.551Z,9.90
2018-09-19T21:17:58.036Z,11.90
2018-09-19T21:20:28.031Z,8.43
2018-09-19T21:22:57.803Z,10.80
2018-09-19T21:25:27.755Z,11.57
2018-09-19T21:27:57.150Z,12.40
2018-09-19T21:30:28.063Z,10.40
2018-09-19T21:32:57.411Z,9.33
2018-09-19T21:35:26.904Z,10.73
2018-09-19T21:37:56.436Z,9.67
2018-09-19T21:40:26.622Z,11.43
2018-09-19T21:42:56.209Z,8.63
2018-09-19T21:45:25.440Z,9.03
2018-09-19T21:47:54.960Z,8.63
2018-09-19T21:50:24.542Z,11.45
2018-09-19T21:52:53.878Z,11.97
2018-09-19T21:55:23.210Z,11.85
2018-09-19T21:57:52.976Z,10.60
2018-09-19T22:00:22.728Z,9.70
2018-09-19T22:02:52.212Z,7.57
2018-09-19T22:05:22.570Z,10.60
2018-09-19T22:07:52.065Z,10.80
2018-09-19T22:10:22.074Z,7.63
2018-09-19T22:12:51.649Z,7.87
2018-09-19T22:15:21.778Z,9.57
2018-09-19T22:17:51.353Z,6.17
2018-09-19T22:20:20.862Z,10.40
2018-09-19T22:22:51.116Z,8.37
2018-09-19T22:25:20.533Z,8.23
2018-09-19T22:27:50.101Z,9.63
2018-09-19T22:30:19.873Z,10.25
2018-09-19T22:32:49.387Z,11.23
2018-09-19T22:35:18.967Z,6.07
2018-09-19T22:37:49.527Z,9.70
2018-09-19T22:40:19.871Z,12.33
2018-09-19T22:42:49.401Z,12.20
2018-09-19T22:45:18.905Z,11.43
2018-09-19T22:47:48.991Z,10.80
2018-09-19T22:50:19.098Z,11.50
2018-09-19T22:52:49.226Z,12.40
2018-09-19T22:55:18.809Z,11.27
2018-09-19T22:57:48.313Z,12.07
2018-09-19T23:00:17.847Z,12.23
2018-09-19T23:02:47.431Z,13.77
2018-09-19T23:05:16.853Z,12.97
2018-09-19T23:07:47.237Z,14.95
2018-09-19T23:10:16.855Z,11.07
2018-09-19T23:12:46.299Z,14.90
2018-09-19T23:15:15.770Z,15.07
2018-09-19T23:17:45.124Z,14.90
2018-09-19T23:20:14.592Z,14.80
2018-09-19T23:22:44.134Z,14.97
2018-09-19T23:25:13.574Z,16.07
2018-09-19T23:27:42.944Z,15.90
2018-09-19T23:30:12.317Z,13.10
2018-09-19T23:32:42.020Z,13.00
2018-09-19T23:35:11.375Z,14.50
2018-09-19T23:37:40.913Z,10.70
2018-09-19T23:40:10.215Z,12.70
2018-09-19T23:42:39.774Z,12.00
2018-09-19T23:45:09.299Z,12.83
2018-09-19T23:47:38.714Z,14.07
2018-09-19T23:50:08.117Z,17.65
2018-09-19T23:52:38.523Z,14.90
2018-09-19T23:55:07.991Z,13.10
2018-09-19T23:57:37.420Z,15.90
